Nespelem, WA

11:07 AM PST on November 26, 2014 (GMT -0800)
Omak | Change Station
CLOSE
Current Station
Airport
Location: Omak,
Elevation: 1302 ft
Nearby Weather Stations

Elev 1302 ft 48.46 °N, 119.52 °W | Updated 11 minutes ago

Fog
Fog
34 °F
Feels Like 29 °F
N
6
Wind Variable Wind from South

Today
High -- | Low -- °F
--% Chance of Precip.
Yesterday
High -- | Low -- °F
Precip. -- in
7:20 AM 4:08 PM
Waxing Crescent, 22% visible
Pressure 30.15 in
Visibility 3.0 miles
Clouds Few 200 ft
Overcast 1900 ft
Windchill 29 °F
Dew Point 33 °F
Humidity 96%
Rainfall 0.00 in
Snow Depth Not available.
UV 0 out of 12
Pollen .10 out of 12
Air Quality Not available.
Flu Activity Not available.
SPECI KOMK 261856Z AUTO 18005KT 3SM BR FEW002 OVC019 01/01 A3015 RMK AO2 T00110006

More Conditions Fewer Conditions

Pressure 30.15 in
Visibility 3.0 miles
Clouds Few 200 ft
Overcast 1900 ft
Windchill 29 °F
Dew Point 33 °F
Humidity 96%
Rainfall 0.00 in
Snow Depth Not available.
UV 0 out of 12
Pollen .10 out of 12
Air Quality Not available.
Flu Activity Not available.
SPECI KOMK 261856Z AUTO 18005KT 3SM BR FEW002 OVC019 01/01 A3015 RMK AO2 T00110006

More Conditions Fewer Conditions

10-Day Weather Forecast

Almanac

Astronomy

Nov. 26, 2014 Rise Set
Actual Time
Civil Twilight
Nautical Twilight
Astronomical Twilight
Moon
Length of Visible Light
Length of Day
Tomorrow will be .
, % of the Moon is Illuminated

Today's Extremes

State Highs State Lows

Community

WunderPhotos

Upload Photos

1,773,831 photos uploaded!

WunderBlogs® & News

Nearby

Air Quality

  Air Quality AQ Index Pollutant
Not available.

Snow Depth

Station Depth Elevation

Earthquake Activity

City Distance Mag. Time & Date
Minimum magnitude displayed is 2.5.

Coastal Water Temperatures

Place Temperature

Nearby Weather Stations